createdAt,value
2019-05-22T00:02:37.655Z,43.80
2019-05-22T00:05:14.906Z,36.98
2019-05-22T00:07:44.840Z,24.27
2019-05-22T00:10:18.956Z,27.85
2019-05-22T00:12:49.152Z,31.48
2019-05-22T00:15:20.896Z,25.55
2019-05-22T00:17:50.901Z,26.15
2019-05-22T00:20:22.330Z,27.00
2019-05-22T00:22:53.909Z,26.80
2019-05-22T00:25:26.660Z,25.75
2019-05-22T00:27:56.447Z,22.27
2019-05-22T00:30:27.632Z,26.80
2019-05-22T00:32:57.352Z,24.65
2019-05-22T00:35:27.005Z,23.52
2019-05-22T00:37:57.187Z,23.98
2019-05-22T00:40:28.714Z,26.33
2019-05-22T00:43:04.021Z,25.32
2019-05-22T00:45:31.100Z,23.10
2019-05-22T00:48:00.210Z,24.70
2019-05-22T00:50:40.379Z,25.17
2019-05-22T00:53:27.074Z,25.60
2019-05-22T00:56:11.352Z,29.23
2019-05-22T00:58:47.220Z,26.80
2019-05-22T01:01:32.258Z,25.90
2019-05-22T01:04:02.903Z,23.45
2019-05-22T01:06:33.283Z,24.43
2019-05-22T01:09:04.481Z,22.20
2019-05-22T01:11:33.944Z,26.65
2019-05-22T01:14:04.617Z,24.82
2019-05-22T01:16:33.904Z,26.62
2019-05-22T01:19:05.323Z,28.07
2019-05-22T01:21:36.579Z,27.90
2019-05-22T01:24:07.010Z,27.42
2019-05-22T01:26:36.013Z,31.50
2019-05-22T01:29:05.927Z,31.23
2019-05-22T01:31:41.688Z,26.45
2019-05-22T01:34:13.014Z,26.00
2019-05-22T01:36:47.654Z,25.27
2019-05-22T01:39:42.729Z,29.82
2019-05-22T01:42:14.254Z,29.42
2019-05-22T01:44:59.785Z,29.77
2019-05-22T01:47:20.736Z,28.90
2019-05-22T01:49:54.012Z,29.05
2019-05-22T01:52:23.413Z,32.17
2019-05-22T01:54:52.719Z,30.52
2019-05-22T01:57:23.654Z,30.30
2019-05-22T01:59:53.220Z,33.50
2019-05-22T02:02:25.489Z,36.42
2019-05-22T02:04:54.267Z,44.63
2019-05-22T02:07:24.389Z,35.78
2019-05-22T02:09:54.933Z,42.98
2019-05-22T02:12:50.509Z,32.60
2019-05-22T02:15:19.666Z,38.73
2019-05-22T02:17:49.543Z,33.45
2019-05-22T02:20:19.689Z,31.87
2019-05-22T02:22:50.486Z,37.67
2019-05-22T02:25:21.105Z,33.83
2019-05-22T02:27:50.678Z,39.55
2019-05-22T02:30:23.173Z,31.27
2019-05-22T02:32:52.784Z,33.02
2019-05-22T02:35:22.487Z,36.08
2019-05-22T02:37:53.128Z,36.48
2019-05-22T02:40:27.165Z,38.53
2019-05-22T02:42:56.520Z,40.35
2019-05-22T02:45:26.400Z,32.50
2019-05-22T02:47:57.051Z,39.40
2019-05-22T02:50:27.443Z,40.98
2019-05-22T02:52:57.163Z,40.88
2019-05-22T02:55:27.210Z,34.92
2019-05-22T02:57:56.370Z,36.65
2019-05-22T03:00:29.913Z,42.85
2019-05-22T03:02:59.626Z,39.80
2019-05-22T03:05:28.547Z,36.90
2019-05-22T03:07:58.762Z,48.60
2019-05-22T03:10:29.647Z,38.58
2019-05-22T03:12:58.520Z,35.23
2019-05-22T03:15:28.542Z,40.35
2019-05-22T03:18:02.463Z,36.28
2019-05-22T03:20:33.884Z,36.85
2019-05-22T03:23:40.954Z,31.10
2019-05-22T03:26:11.038Z,33.25
2019-05-22T03:28:40.743Z,34.15
2019-05-22T03:31:10.181Z,41.58
2019-05-22T03:33:40.248Z,40.73
2019-05-22T03:36:13.583Z,39.67
2019-05-22T03:38:42.647Z,37.30
2019-05-22T03:41:12.725Z,38.05
2019-05-22T03:43:44.922Z,39.10
2019-05-22T03:46:33.258Z,38.33
2019-05-22T03:49:02.888Z,36.45
2019-05-22T03:51:31.962Z,34.80
2019-05-22T03:54:01.548Z,32.17
2019-05-22T03:56:32.602Z,35.75
2019-05-22T03:59:02.338Z,38.42
2019-05-22T04:01:32.030Z,36.93
2019-05-22T04:04:02.619Z,36.42
2019-05-22T04:06:33.052Z,37.05
2019-05-22T04:09:12.376Z,36.15
2019-05-22T04:11:45.231Z,33.50
2019-05-22T04:14:14.115Z,39.35
2019-05-22T04:17:05.720Z,35.63
2019-05-22T04:19:48.360Z,29.65
2019-05-22T04:22:05.986Z,37.45
2019-05-22T04:24:35.140Z,36.33
2019-05-22T04:27:07.515Z,35.65
2019-05-22T04:29:37.179Z,32.15
2019-05-22T04:32:15.670Z,41.88
2019-05-22T04:34:45.344Z,31.45
2019-05-22T04:37:16.207Z,41.53
2019-05-22T04:39:48.263Z,31.20
2019-05-22T04:42:18.335Z,27.65
2019-05-22T04:45:09.045Z,31.25
2019-05-22T04:47:39.217Z,28.75
2019-05-22T04:50:12.925Z,36.08
2019-05-22T04:52:42.232Z,38.95
2019-05-22T04:55:13.258Z,38.13
2019-05-22T04:57:42.364Z,37.05
2019-05-22T05:00:12.816Z,32.08
2019-05-22T05:02:41.835Z,29.07
2019-05-22T05:05:11.035Z,29.75
2019-05-22T05:07:41.588Z,37.20
2019-05-22T05:10:11.429Z,32.75
2019-05-22T05:12:42.267Z,38.20
2019-05-22T05:15:11.403Z,33.73
2019-05-22T05:17:40.635Z,32.65
2019-05-22T05:20:21.987Z,33.20
2019-05-22T05:22:43.648Z,33.13
2019-05-22T05:25:13.238Z,33.25
2019-05-22T05:27:42.365Z,31.02
2019-05-22T05:30:11.950Z,33.65
2019-05-22T05:32:41.193Z,30.57
2019-05-22T05:35:11.637Z,36.75
2019-05-22T05:37:42.209Z,36.88
2019-05-22T05:40:41.252Z,28.20
2019-05-22T05:43:11.638Z,29.87
2019-05-22T05:45:41.742Z,34.83
2019-05-22T05:48:13.994Z,30.05
2019-05-22T05:51:21.027Z,34.15
2019-05-22T05:54:14.943Z,27.37
2019-05-22T05:56:48.517Z,27.48
2019-05-22T05:59:20.501Z,29.30
2019-05-22T06:01:53.691Z,29.05
2019-05-22T06:04:35.076Z,32.85
2019-05-22T06:07:22.025Z,28.38
2019-05-22T06:10:21.121Z,31.93
2019-05-22T06:12:51.106Z,30.62
2019-05-22T06:15:21.981Z,32.25
2019-05-22T06:18:27.978Z,28.23
2019-05-22T06:21:03.899Z,27.70
2019-05-22T06:24:05.830Z,31.10
2019-05-22T06:27:00.054Z,33.28
2019-05-22T06:30:07.195Z,30.70
2019-05-22T06:33:36.702Z,39.92
2019-05-22T06:36:10.541Z,34.13
2019-05-22T06:39:10.095Z,27.90
2019-05-22T06:41:46.527Z,31.05
2019-05-22T06:44:35.215Z,27.87
2019-05-22T06:47:24.306Z,36.50
2019-05-22T06:49:57.629Z,33.80
2019-05-22T06:52:27.482Z,30.08
2019-05-22T06:54:57.242Z,31.68
2019-05-22T06:57:28.345Z,28.75
2019-05-22T07:00:12.061Z,33.98
2019-05-22T07:02:31.741Z,24.65
2019-05-22T07:05:05.018Z,24.32
2019-05-22T07:07:34.465Z,33.73
2019-05-22T07:10:03.658Z,24.80
2019-05-22T07:12:35.174Z,27.22
2019-05-22T07:15:34.107Z,30.80
2019-05-22T07:18:04.185Z,24.35
2019-05-22T07:20:35.616Z,28.12
2019-05-22T07:23:06.947Z,27.87
2019-05-22T07:25:37.374Z,39.78
2019-05-22T07:28:07.992Z,26.45
2019-05-22T07:30:37.099Z,28.17
2019-05-22T07:33:06.348Z,27.27
2019-05-22T07:35:56.445Z,27.32
2019-05-22T07:38:06.634Z,30.37
2019-05-22T07:40:39.504Z,36.65
2019-05-22T07:43:08.870Z,29.77
2019-05-22T07:45:38.643Z,32.03
2019-05-22T07:48:10.841Z,37.90
2019-05-22T07:50:48.079Z,32.58
2019-05-22T07:53:15.678Z,28.42
2019-05-22T07:55:45.485Z,24.18
2019-05-22T07:58:16.989Z,34.53
2019-05-22T08:01:07.670Z,34.95
2019-05-22T08:03:42.540Z,32.98
2019-05-22T08:06:11.513Z,31.70
2019-05-22T08:08:57.509Z,27.30
2019-05-22T08:11:37.522Z,28.15
2019-05-22T08:14:19.106Z,21.62
2019-05-22T08:16:49.710Z,25.95
2019-05-22T08:19:23.765Z,23.22
2019-05-22T08:22:06.763Z,25.12
2019-05-22T08:24:35.858Z,30.60
2019-05-22T08:27:07.997Z,22.95
2019-05-22T08:29:43.523Z,20.17
2019-05-22T08:32:20.581Z,26.12
2019-05-22T08:35:18.739Z,24.23
2019-05-22T08:38:14.231Z,24.87
2019-05-22T08:40:44.192Z,25.88
2019-05-22T08:43:24.935Z,30.10
2019-05-22T08:46:09.381Z,23.42
2019-05-22T08:48:47.446Z,23.22
2019-05-22T08:51:27.318Z,31.90
2019-05-22T08:54:05.664Z,18.65
2019-05-22T08:56:39.678Z,31.62
2019-05-22T08:59:19.377Z,17.00
2019-05-22T09:02:07.897Z,17.85
2019-05-22T09:04:40.814Z,18.17
2019-05-22T09:07:19.579Z,19.07
2019-05-22T09:12:50.030Z,13.30
2019-05-22T09:15:39.385Z,12.98
2019-05-22T09:18:13.846Z,14.15
2019-05-22T09:20:49.335Z,12.28
2019-05-22T09:23:14.259Z,13.20
2019-05-22T09:25:43.892Z,15.25
2019-05-22T09:28:17.538Z,12.05
2019-05-22T09:30:46.667Z,15.10
2019-05-22T09:33:17.908Z,10.50
2019-05-22T09:35:49.968Z,11.95
2019-05-22T09:38:20.643Z,12.73
2019-05-22T09:40:50.056Z,9.35
2019-05-22T09:43:21.036Z,9.88
2019-05-22T09:45:54.927Z,15.20
2019-05-22T09:48:24.936Z,11.30
2019-05-22T09:50:55.090Z,11.30
2019-05-22T09:53:24.709Z,10.78
2019-05-22T09:56:13.362Z,8.95
2019-05-22T09:58:42.935Z,8.33
2019-05-22T10:01:15.404Z,8.00
2019-05-22T10:03:49.283Z,6.90
2019-05-22T10:06:21.628Z,7.65
2019-05-22T10:08:49.946Z,12.93
2019-05-22T10:11:19.095Z,9.00
2019-05-22T10:13:51.842Z,7.55
2019-05-22T10:16:21.401Z,7.12
2019-05-22T10:18:53.378Z,7.15
2019-05-22T10:21:22.284Z,6.30
2019-05-22T10:23:51.520Z,7.28
2019-05-22T10:26:21.159Z,8.20
2019-05-22T10:28:50.357Z,7.42
2019-05-22T10:31:21.849Z,9.50
2019-05-22T10:33:52.227Z,8.13
2019-05-22T10:36:21.464Z,8.00
2019-05-22T10:38:50.881Z,7.70
2019-05-22T10:41:21.143Z,5.85
2019-05-22T10:43:50.730Z,7.70
2019-05-22T10:46:20.188Z,7.70
2019-05-22T10:48:49.406Z,6.92
2019-05-22T10:51:18.885Z,6.00
2019-05-22T10:53:48.975Z,9.48
2019-05-22T10:56:18.334Z,7.47
2019-05-22T10:58:47.358Z,5.70
2019-05-22T11:01:16.473Z,5.30
2019-05-22T11:06:34.561Z,7.33
2019-05-22T11:09:05.169Z,7.75
2019-05-22T11:11:34.651Z,8.15
2019-05-22T11:14:04.048Z,4.65
2019-05-22T11:16:33.948Z,7.47
2019-05-22T11:19:03.804Z,6.25
2019-05-22T11:21:33.574Z,8.00
2019-05-22T11:24:02.848Z,7.62
2019-05-22T11:26:32.309Z,5.75
2019-05-22T11:29:01.477Z,5.30
2019-05-22T11:31:31.177Z,9.50
2019-05-22T11:34:00.484Z,6.58
2019-05-22T11:36:29.831Z,5.22
2019-05-22T11:38:58.847Z,5.85
2019-05-22T11:41:28.502Z,4.67
2019-05-22T11:43:57.851Z,10.35
2019-05-22T11:46:27.476Z,7.58
2019-05-22T11:48:56.827Z,6.15
2019-05-22T11:51:26.011Z,4.40
2019-05-22T11:54:08.695Z,4.85
2019-05-22T11:56:27.311Z,3.95
2019-05-22T11:59:01.186Z,4.58
2019-05-22T12:01:30.324Z,3.75
2019-05-22T12:04:00.596Z,5.25
2019-05-22T12:06:30.687Z,6.50
2019-05-22T12:08:59.661Z,9.28
2019-05-22T12:11:29.092Z,3.80
2019-05-22T12:13:58.523Z,7.72
2019-05-22T12:16:28.318Z,6.17
2019-05-22T12:18:58.883Z,5.03
2019-05-22T12:21:28.343Z,4.40
2019-05-22T12:23:57.444Z,4.90
2019-05-22T12:26:26.555Z,5.45
2019-05-22T12:28:55.698Z,6.03
2019-05-22T12:31:24.741Z,4.47
2019-05-22T12:33:53.740Z,6.50
2019-05-22T12:36:22.679Z,4.08
2019-05-22T12:38:51.889Z,3.40
2019-05-22T12:41:21.216Z,3.52
2019-05-22T12:43:50.203Z,6.17
2019-05-22T12:46:19.609Z,3.90
2019-05-22T12:48:48.832Z,3.12
2019-05-22T12:51:18.604Z,2.85
2019-05-22T12:53:47.808Z,4.20
2019-05-22T12:56:17.599Z,7.30
2019-05-22T12:58:47.214Z,3.72
2019-05-22T13:01:17.680Z,4.40
2019-05-22T13:03:48.474Z,8.73
2019-05-22T13:06:17.563Z,4.17
2019-05-22T13:08:46.935Z,6.10
2019-05-22T13:11:16.154Z,6.65
2019-05-22T13:13:45.922Z,5.47
2019-05-22T13:16:15.702Z,5.60
2019-05-22T13:18:48.408Z,4.85
2019-05-22T13:21:20.717Z,5.45
2019-05-22T13:23:51.376Z,6.03
2019-05-22T13:26:21.327Z,4.47
2019-05-22T13:28:50.772Z,8.73
2019-05-22T13:31:20.579Z,3.60
2019-05-22T13:33:52.734Z,6.03
2019-05-22T13:36:22.371Z,4.12
2019-05-22T13:38:51.782Z,4.70
2019-05-22T13:41:21.079Z,5.90
2019-05-22T13:43:51.307Z,8.78
2019-05-22T13:46:20.533Z,3.30
2019-05-22T13:48:50.201Z,3.17
2019-05-22T13:51:21.372Z,4.60
2019-05-22T13:53:52.111Z,8.25
2019-05-22T13:56:25.591Z,3.15
2019-05-22T13:58:54.342Z,3.05
2019-05-22T14:01:24.174Z,4.03
2019-05-22T14:03:54.111Z,3.58
2019-05-22T14:06:24.047Z,3.37
2019-05-22T14:08:53.816Z,7.12
2019-05-22T14:11:23.347Z,8.80
2019-05-22T14:13:53.115Z,3.22
2019-05-22T14:16:22.317Z,5.80
2019-05-22T14:18:51.356Z,4.87
2019-05-22T14:21:21.156Z,4.60
2019-05-22T14:23:50.252Z,6.92
2019-05-22T14:26:19.387Z,3.77
2019-05-22T14:28:49.746Z,4.53
2019-05-22T14:31:18.795Z,4.45
2019-05-22T14:33:47.860Z,3.15
2019-05-22T14:36:17.102Z,3.65
2019-05-22T14:38:49.755Z,3.47
2019-05-22T14:41:18.750Z,4.83
2019-05-22T14:43:47.874Z,5.33
2019-05-22T14:46:16.857Z,5.47
2019-05-22T14:48:46.057Z,7.20
2019-05-22T14:51:15.966Z,3.85
2019-05-22T14:53:52.265Z,4.35
2019-05-22T14:56:22.095Z,4.12
2019-05-22T14:58:51.594Z,5.12
2019-05-22T15:01:22.448Z,3.87
2019-05-22T15:03:51.637Z,2.65
2019-05-22T15:06:21.110Z,9.05
2019-05-22T15:08:50.343Z,3.35
2019-05-22T15:11:19.648Z,5.03
2019-05-22T15:13:49.248Z,4.25
2019-05-22T15:16:18.495Z,4.05
2019-05-22T15:18:47.525Z,4.12
2019-05-22T15:21:18.306Z,5.42
2019-05-22T15:23:48.807Z,4.33
2019-05-22T15:26:37.877Z,7.67
2019-05-22T15:29:08.261Z,3.50
2019-05-22T15:31:37.782Z,4.42
2019-05-22T15:34:08.137Z,9.23
2019-05-22T15:36:39.055Z,4.03
2019-05-22T15:39:11.217Z,3.22
2019-05-22T15:41:40.835Z,6.37
2019-05-22T15:44:11.356Z,7.42
2019-05-22T15:46:41.302Z,4.97
2019-05-22T15:49:12.853Z,3.77
2019-05-22T15:51:42.674Z,5.65
2019-05-22T15:54:31.518Z,6.87
2019-05-22T15:57:03.055Z,4.45
2019-05-22T15:59:35.790Z,3.92
2019-05-22T16:02:06.379Z,6.92
2019-05-22T16:04:38.841Z,4.65
2019-05-22T16:07:09.132Z,4.22
2019-05-22T16:09:38.960Z,3.35
2019-05-22T16:12:14.902Z,6.28
2019-05-22T16:14:45.440Z,5.95
2019-05-22T16:17:14.946Z,3.65
2019-05-22T16:19:44.627Z,8.13
2019-05-22T16:22:13.927Z,3.77
2019-05-22T16:24:43.840Z,6.20
2019-05-22T16:27:14.140Z,3.72
2019-05-22T16:29:44.979Z,4.22
2019-05-22T16:32:15.898Z,4.35
2019-05-22T16:34:45.512Z,4.00
2019-05-22T16:37:16.143Z,3.83
2019-05-22T16:39:50.106Z,4.42
2019-05-22T16:42:20.376Z,3.92
2019-05-22T16:44:50.145Z,3.15
2019-05-22T16:47:22.755Z,8.33
2019-05-22T16:49:53.904Z,3.17
2019-05-22T16:52:28.431Z,6.08
2019-05-22T16:54:59.961Z,5.25
2019-05-22T16:57:30.452Z,5.55
2019-05-22T17:00:00.262Z,6.33
2019-05-22T17:02:32.129Z,3.65
2019-05-22T17:05:02.414Z,3.90
2019-05-22T17:07:32.884Z,4.58
2019-05-22T17:10:06.442Z,6.20
2019-05-22T17:12:37.270Z,3.10
2019-05-22T17:15:08.070Z,3.47
2019-05-22T17:17:37.601Z,3.12
2019-05-22T17:20:10.078Z,4.62
2019-05-22T17:22:42.748Z,5.92
2019-05-22T17:25:13.909Z,3.30
2019-05-22T17:27:44.880Z,5.50
2019-05-22T17:30:20.393Z,2.92
2019-05-22T17:32:48.138Z,7.45
2019-05-22T17:35:20.704Z,7.05
2019-05-22T17:37:51.936Z,3.65
2019-05-22T17:40:23.519Z,3.75
2019-05-22T17:42:55.586Z,5.62
2019-05-22T17:45:27.014Z,11.60
2019-05-22T17:47:56.768Z,3.70
2019-05-22T17:50:28.052Z,4.47
2019-05-22T17:53:00.779Z,3.85
2019-05-22T17:55:30.926Z,4.70
2019-05-22T17:58:02.937Z,4.40
2019-05-22T18:00:38.948Z,6.40
2019-05-22T18:03:08.812Z,4.97
2019-05-22T18:05:38.665Z,6.67
2019-05-22T18:08:08.400Z,5.03
2019-05-22T18:10:40.962Z,2.72
2019-05-22T18:13:10.764Z,2.95
2019-05-22T18:15:40.654Z,6.00
2019-05-22T18:18:10.676Z,3.33
2019-05-22T18:20:43.795Z,3.98
2019-05-22T18:23:11.070Z,8.23
2019-05-22T18:25:40.292Z,3.37
2019-05-22T18:28:10.636Z,5.25
2019-05-22T18:30:41.584Z,5.00
2019-05-22T18:33:10.941Z,2.90
2019-05-22T18:35:40.390Z,7.65
2019-05-22T18:38:09.268Z,3.72
2019-05-22T18:40:39.042Z,6.08
2019-05-22T18:43:10.889Z,3.70
2019-05-22T18:45:40.622Z,3.10
2019-05-22T18:48:10.687Z,3.75
2019-05-22T18:50:40.298Z,5.92
2019-05-22T18:53:10.426Z,3.00
2019-05-22T18:55:39.303Z,4.53
2019-05-22T18:58:11.525Z,3.90
2019-05-22T19:00:40.946Z,3.80
2019-05-22T19:03:10.622Z,3.40
2019-05-22T19:05:49.777Z,2.77
2019-05-22T19:08:39.991Z,3.92
2019-05-22T19:11:38.225Z,2.55
2019-05-22T19:14:27.137Z,3.20
2019-05-22T19:20:13.899Z,5.80
2019-05-22T19:23:05.720Z,4.25
2019-05-22T19:26:04.926Z,3.72
2019-05-22T19:28:43.927Z,2.92
2019-05-22T19:31:10.752Z,2.52
2019-05-22T19:33:44.356Z,3.45
2019-05-22T19:36:14.844Z,6.67
2019-05-22T19:38:46.711Z,7.58
2019-05-22T19:41:17.546Z,4.67
2019-05-22T19:44:01.775Z,6.67
2019-05-22T19:46:28.195Z,3.15
2019-05-22T19:48:58.695Z,4.20
2019-05-22T19:51:27.979Z,6.20
2019-05-22T19:53:57.486Z,3.35
2019-05-22T19:56:26.770Z,3.95
2019-05-22T19:58:56.026Z,2.75
2019-05-22T20:01:29.466Z,3.30
2019-05-22T20:03:58.819Z,5.25
2019-05-22T20:06:29.875Z,9.85
2019-05-22T20:09:00.670Z,8.03
2019-05-22T20:11:30.028Z,7.12
2019-05-22T20:13:59.984Z,5.80
2019-05-22T20:16:29.178Z,3.58
2019-05-22T20:18:58.385Z,4.30
2019-05-22T20:21:27.490Z,5.97
2019-05-22T20:23:56.498Z,3.35
2019-05-22T20:26:26.205Z,4.60
2019-05-22T20:28:55.859Z,4.45
2019-05-22T20:31:25.511Z,4.55
2019-05-22T20:33:54.911Z,4.00
2019-05-22T20:36:24.573Z,5.78
2019-05-22T20:38:54.323Z,7.22
2019-05-22T20:41:23.995Z,7.25
2019-05-22T20:43:53.918Z,4.55
2019-05-22T20:46:23.532Z,6.58
2019-05-22T20:48:52.552Z,4.78
2019-05-22T20:51:28.989Z,5.00
2019-05-22T20:53:58.620Z,7.12
2019-05-22T20:56:29.901Z,7.47
2019-05-22T20:58:59.485Z,6.03
2019-05-22T21:01:29.223Z,5.08
2019-05-22T21:04:08.750Z,5.78
2019-05-22T21:06:43.003Z,6.10
2019-05-22T21:09:13.535Z,5.95
2019-05-22T21:11:43.141Z,7.67
2019-05-22T21:14:12.160Z,4.90
2019-05-22T21:16:43.655Z,4.85
2019-05-22T21:19:14.751Z,7.03
2019-05-22T21:21:43.921Z,6.60
2019-05-22T21:24:13.459Z,5.40
2019-05-22T21:26:43.858Z,7.72
2019-05-22T21:29:13.267Z,8.63
2019-05-22T21:31:42.702Z,4.70
2019-05-22T21:34:11.756Z,7.15
2019-05-22T21:36:42.187Z,6.73
2019-05-22T21:39:15.204Z,11.35
2019-05-22T21:41:44.498Z,7.80
2019-05-22T21:44:13.580Z,6.80
2019-05-22T21:46:43.246Z,9.68
2019-05-22T21:49:12.167Z,6.12
2019-05-22T21:51:41.133Z,6.90
2019-05-22T21:54:10.414Z,23.67
2019-05-22T21:56:39.925Z,6.25
2019-05-22T21:59:09.682Z,7.05
2019-05-22T22:01:52.327Z,6.37
2019-05-22T22:04:23.735Z,7.87
2019-05-22T22:06:55.185Z,9.73
2019-05-22T22:09:25.898Z,7.97
2019-05-22T22:11:55.385Z,8.30
2019-05-22T22:14:26.611Z,7.17
2019-05-22T22:16:56.309Z,7.37
2019-05-22T22:19:25.379Z,7.42
2019-05-22T22:21:55.302Z,9.35
2019-05-22T22:24:24.746Z,7.05
2019-05-22T22:26:55.395Z,9.03
2019-05-22T22:29:24.414Z,7.78
2019-05-22T22:31:54.839Z,8.28
2019-05-22T22:34:40.428Z,6.65
2019-05-22T22:37:11.186Z,14.33
2019-05-22T22:39:43.190Z,8.13
2019-05-22T22:42:14.255Z,7.50
2019-05-22T22:44:44.278Z,9.43
2019-05-22T22:47:17.894Z,8.60
2019-05-22T22:49:48.081Z,8.70
2019-05-22T22:52:19.362Z,9.95
2019-05-22T22:54:48.187Z,15.53
2019-05-22T22:57:17.254Z,10.82
2019-05-22T22:59:46.728Z,12.95
2019-05-22T23:02:17.607Z,8.70
2019-05-22T23:04:47.763Z,11.10
2019-05-22T23:07:18.836Z,11.90
2019-05-22T23:09:48.543Z,9.45
2019-05-22T23:12:19.728Z,9.75
2019-05-22T23:14:52.295Z,9.55
2019-05-22T23:17:22.212Z,7.97
2019-05-22T23:19:50.041Z,12.95
2019-05-22T23:22:22.395Z,9.90
2019-05-22T23:24:53.251Z,9.78
2019-05-22T23:27:23.212Z,11.60
2019-05-22T23:29:54.021Z,9.00
2019-05-22T23:32:24.014Z,10.25
2019-05-22T23:34:54.070Z,12.00
2019-05-22T23:37:24.000Z,9.23
2019-05-22T23:39:53.999Z,16.52
2019-05-22T23:42:31.330Z,10.60
2019-05-22T23:45:02.642Z,9.70
2019-05-22T23:47:32.005Z,14.45
2019-05-22T23:50:01.604Z,15.20
2019-05-22T23:52:31.049Z,14.68
2019-05-22T23:55:01.236Z,13.45
2019-05-22T23:57:30.287Z,12.98
